sensor_id;sensor_type;location;lat;lon;timestamp;pressure;altitude;pressure_sealevel;temperature;humidity
9899;BME280;4988;49.238;6.698;2023-04-01T00:00:33;97656.19;;;9.41;93.71
9899;BME280;4988;49.238;6.698;2023-04-01T00:02:58;97650.31;;;9.36;93.97
9899;BME280;4988;49.238;6.698;2023-04-01T00:05:23;97650.31;;;9.36;93.48
9899;BME280;4988;49.238;6.698;2023-04-01T00:07:50;97654.69;;;9.37;93.60
9899;BME280;4988;49.238;6.698;2023-04-01T00:10:16;97645.44;;;9.42;92.54
9899;BME280;4988;49.238;6.698;2023-04-01T00:12:43;97646.41;;;9.41;93.28
9899;BME280;4988;49.238;6.698;2023-04-01T00:15:10;97649.91;;;9.42;93.42
9899;BME280;4988;49.238;6.698;2023-04-01T00:17:35;97649.16;;;9.40;92.77
9899;BME280;4988;49.238;6.698;2023-04-01T00:20:01;97644.81;;;9.39;93.43
9899;BME280;4988;49.238;6.698;2023-04-01T00:22:28;97644.06;;;9.37;94.85
9899;BME280;4988;49.238;6.698;2023-04-01T00:24:53;97644.06;;;9.37;94.86
9899;BME280;4988;49.238;6.698;2023-04-01T00:27:19;97640.88;;;9.31;96.04
9899;BME280;4988;49.238;6.698;2023-04-01T00:29:46;97643.03;;;9.25;97.56
9899;BME280;4988;49.238;6.698;2023-04-01T00:32:13;97630.63;;;9.25;98.01
9899;BME280;4988;49.238;6.698;2023-04-01T00:34:39;97629.34;;;9.18;98.70
9899;BME280;4988;49.238;6.698;2023-04-01T00:37:05;97631.59;;;9.24;97.78
9899;BME280;4988;49.238;6.698;2023-04-01T00:39:32;97633.94;;;9.29;96.38
9899;BME280;4988;49.238;6.698;2023-04-01T00:41:59;97637.66;;;9.26;96.06
9899;BME280;4988;49.238;6.698;2023-04-01T00:44:28;97638.38;;;9.28;96.47
9899;BME280;4988;49.238;6.698;2023-04-01T00:46:54;97636.78;;;9.26;96.12
9899;BME280;4988;49.238;6.698;2023-04-01T00:49:26;97636.38;;;9.32;94.49
9899;BME280;4988;49.238;6.698;2023-04-01T00:51:54;97643.84;;;9.40;94.19
9899;BME280;4988;49.238;6.698;2023-04-01T00:54:22;97636.84;;;9.39;94.01
9899;BME280;4988;49.238;6.698;2023-04-01T00:56:56;97629.63;;;9.41;93.48
9899;BME280;4988;49.238;6.698;2023-04-01T00:59:26;97635.16;;;9.38;94.49
9899;BME280;4988;49.238;6.698;2023-04-01T01:01:52;97622.81;;;9.37;94.88
9899;BME280;4988;49.238;6.698;2023-04-01T01:04:24;97624.59;;;9.36;94.82
9899;BME280;4988;49.238;6.698;2023-04-01T01:10:17;97619.63;;;9.31;95.42
9899;BME280;4988;49.238;6.698;2023-04-01T01:15:44;97621.66;;;9.13;99.36
9899;BME280;4988;49.238;6.698;2023-04-01T01:37:41;97611.03;;;8.72;100.00
9899;BME280;4988;49.238;6.698;2023-04-01T01:40:10;97612.53;;;8.76;100.00
9899;BME280;4988;49.238;6.698;2023-04-01T01:42:39;97619.94;;;8.71;100.00
9899;BME280;4988;49.238;6.698;2023-04-01T01:45:09;97609.72;;;8.64;100.00
9899;BME280;4988;49.238;6.698;2023-04-01T01:47:37;97615.25;;;8.61;100.00
9899;BME280;4988;49.238;6.698;2023-04-01T01:50:03;97613.97;;;8.67;100.00
9899;BME280;4988;49.238;6.698;2023-04-01T01:52:29;97609.94;;;8.61;100.00
9899;BME280;4988;49.238;6.698;2023-04-01T01:54:56;97603.97;;;8.58;100.00
9899;BME280;4988;49.238;6.698;2023-04-01T01:57:28;97621.88;;;8.54;100.00
9899;BME280;4988;49.238;6.698;2023-04-01T01:59:56;97609.38;;;8.56;100.00
9899;BME280;4988;49.238;6.698;2023-04-01T02:02:25;97610.31;;;8.55;100.00
9899;BME280;4988;49.238;6.698;2023-04-01T02:04:51;97606.72;;;8.56;100.00
9899;BME280;4988;49.238;6.698;2023-04-01T02:07:25;97603.03;;;8.59;100.00
9899;BME280;4988;49.238;6.698;2023-04-01T02:09:52;97611.81;;;8.59;100.00
9899;BME280;4988;49.238;6.698;2023-04-01T02:12:19;97602.91;;;8.60;100.00
9899;BME280;4988;49.238;6.698;2023-04-01T02:14:53;97609.38;;;8.56;100.00
9899;BME280;4988;49.238;6.698;2023-04-01T02:17:22;97609.84;;;8.63;100.00
9899;BME280;4988;49.238;6.698;2023-04-01T02:20:10;97595.13;;;8.57;100.00
9899;BME280;4988;49.238;6.698;2023-04-01T02:22:40;97602.53;;;8.66;100.00
9899;BME280;4988;49.238;6.698;2023-04-01T02:25:11;97599.66;;;8.69;100.00
9899;BME280;4988;49.238;6.698;2023-04-01T02:27:38;97596.06;;;8.71;100.00
9899;BME280;4988;49.238;6.698;2023-04-01T02:30:04;97606.50;;;8.74;100.00
9899;BME280;4988;49.238;6.698;2023-04-01T02:32:31;97599.09;;;8.79;100.00
9899;BME280;4988;49.238;6.698;2023-04-01T02:34:58;97593.91;;;8.77;100.00
9899;BME280;4988;49.238;6.698;2023-04-01T02:37:25;97608.56;;;8.83;100.00
9899;BME280;4988;49.238;6.698;2023-04-01T02:39:50;97603.25;;;8.83;100.00
9899;BME280;4988;49.238;6.698;2023-04-01T02:42:16;97592.63;;;8.83;100.00
9899;BME280;4988;49.238;6.698;2023-04-01T02:44:41;97597.75;;;8.86;100.00
9899;BME280;4988;49.238;6.698;2023-04-01T02:47:06;97591.50;;;8.87;100.00
9899;BME280;4988;49.238;6.698;2023-04-01T02:49:31;97587.31;;;8.83;100.00
9899;BME280;4988;49.238;6.698;2023-04-01T02:51:57;97586.50;;;8.82;100.00
9899;BME280;4988;49.238;6.698;2023-04-01T02:54:22;97594.56;;;8.81;100.00
9899;BME280;4988;49.238;6.698;2023-04-01T02:56:47;97583.53;;;8.87;100.00
9899;BME280;4988;49.238;6.698;2023-04-01T02:59:13;97580.13;;;8.85;100.00
9899;BME280;4988;49.238;6.698;2023-04-01T03:01:38;97583.72;;;8.84;100.00
9899;BME280;4988;49.238;6.698;2023-04-01T03:04:04;97586.50;;;8.82;100.00
9899;BME280;4988;49.238;6.698;2023-04-01T03:06:29;97585.25;;;8.88;100.00
9899;BME280;4988;49.238;6.698;2023-04-01T03:08:55;97575.59;;;8.87;100.00
9899;BME280;4988;49.238;6.698;2023-04-01T03:11:20;97577.88;;;8.79;100.00
9899;BME280;4988;49.238;6.698;2023-04-01T03:13:46;97577.03;;;8.78;100.00
9899;BME280;4988;49.238;6.698;2023-04-01T03:16:11;97584.34;;;8.75;100.00
9899;BME280;4988;49.238;6.698;2023-04-01T03:18:37;97573.72;;;8.75;100.00
9899;BME280;4988;49.238;6.698;2023-04-01T03:21:20;97578.06;;;8.76;100.00
9899;BME280;4988;49.238;6.698;2023-04-01T03:23:46;97592.56;;;8.70;100.00
9899;BME280;4988;49.238;6.698;2023-04-01T03:26:11;97587.84;;;8.61;100.00
9899;BME280;4988;49.238;6.698;2023-04-01T03:28:37;97596.84;;;8.58;100.00
9899;BME280;4988;49.238;6.698;2023-04-01T03:31:02;97602.38;;;8.55;100.00
9899;BME280;4988;49.238;6.698;2023-04-01T03:33:27;97605.00;;;8.55;100.00
9899;BME280;4988;49.238;6.698;2023-04-01T03:35:53;97599.78;;;8.53;100.00
9899;BME280;4988;49.238;6.698;2023-04-01T03:38:18;97596.81;;;8.44;100.00
9899;BME280;4988;49.238;6.698;2023-04-01T03:40:44;97595.97;;;8.43;100.00
9899;BME280;4988;49.238;6.698;2023-04-01T03:43:10;97590.13;;;8.38;100.00
9899;BME280;4988;49.238;6.698;2023-04-01T03:45:43;97592.88;;;8.36;100.00
9899;BME280;4988;49.238;6.698;2023-04-01T03:48:08;97592.66;;;8.40;100.00
9899;BME280;4988;49.238;6.698;2023-04-01T03:50:34;97583.94;;;8.37;100.00
9899;BME280;4988;49.238;6.698;2023-04-01T03:53:00;97591.91;;;8.37;100.00
9899;BME280;4988;49.238;6.698;2023-04-01T03:55:25;97582.06;;;8.40;100.00
9899;BME280;4988;49.238;6.698;2023-04-01T03:57:51;97570.06;;;8.34;100.00
9899;BME280;4988;49.238;6.698;2023-04-01T04:00:16;97585.31;;;8.30;100.00
9899;BME280;4988;49.238;6.698;2023-04-01T04:02:42;97584.34;;;8.31;100.00
9899;BME280;4988;49.238;6.698;2023-04-01T04:05:07;97565.97;;;8.28;100.00
9899;BME280;4988;49.238;6.698;2023-04-01T04:07:34;97567.75;;;8.28;100.00
9899;BME280;4988;49.238;6.698;2023-04-01T04:09:59;97573.56;;;8.20;100.00
9899;BME280;4988;49.238;6.698;2023-04-01T04:12:25;97566.94;;;8.27;100.00
9899;BME280;4988;49.238;6.698;2023-04-01T04:14:50;97573.16;;;8.26;100.00
9899;BME280;4988;49.238;6.698;2023-04-01T04:17:15;97574.88;;;8.27;100.00
9899;BME280;4988;49.238;6.698;2023-04-01T04:19:41;97571.00;;;8.18;100.00
9899;BME280;4988;49.238;6.698;2023-04-01T04:22:07;97574.41;;;8.20;100.00
9899;BME280;4988;49.238;6.698;2023-04-01T04:24:34;97574.09;;;8.25;100.00
9899;BME280;4988;49.238;6.698;2023-04-01T04:27:00;97579.78;;;8.19;100.00
9899;BME280;4988;49.238;6.698;2023-04-01T04:29:25;97576.97;;;8.22;100.00
9899;BME280;4988;49.238;6.698;2023-04-01T04:31:50;97576.41;;;8.17;100.00
9899;BME280;4988;49.238;6.698;2023-04-01T04:34:16;97579.44;;;8.11;100.00
9899;BME280;4988;49.238;6.698;2023-04-01T04:36:41;97573.19;;;8.12;100.00
9899;BME280;4988;49.238;6.698;2023-04-01T04:39:06;97581.16;;;8.12;100.00
9899;BME280;4988;49.238;6.698;2023-04-01T04:41:32;97569.78;;;8.10;100.00
9899;BME280;4988;49.238;6.698;2023-04-01T04:43:57;97569.66;;;8.11;100.00
9899;BME280;4988;49.238;6.698;2023-04-01T04:46:24;97567.13;;;8.10;100.00
9899;BME280;4988;49.238;6.698;2023-04-01T04:48:49;97566.34;;;8.08;100.00
9899;BME280;4988;49.238;6.698;2023-04-01T04:51:17;97556.41;;;8.11;100.00
9899;BME280;4988;49.238;6.698;2023-04-01T04:53:43;97567.91;;;8.12;100.00
9899;BME280;4988;49.238;6.698;2023-04-01T04:56:08;97563.53;;;8.11;100.00
9899;BME280;4988;49.238;6.698;2023-04-01T04:58:34;97561.44;;;8.16;100.00
9899;BME280;4988;49.238;6.698;2023-04-01T05:01:05;97556.31;;;8.13;100.00
9899;BME280;4988;49.238;6.698;2023-04-01T05:03:31;97563.53;;;8.11;100.00
9899;BME280;4988;49.238;6.698;2023-04-01T05:05:56;97561.53;;;8.14;100.00
9899;BME280;4988;49.238;6.698;2023-04-01T05:08:21;97557.84;;;8.17;100.00
9899;BME280;4988;49.238;6.698;2023-04-01T05:10:47;97558.03;;;8.14;100.00
9899;BME280;4988;49.238;6.698;2023-04-01T05:13:12;97559.94;;;8.12;100.00
9899;BME280;4988;49.238;6.698;2023-04-01T05:15:37;97555.47;;;8.12;100.00
9899;BME280;4988;49.238;6.698;2023-04-01T05:18:03;97559.28;;;8.08;100.00
9899;BME280;4988;49.238;6.698;2023-04-01T05:20:28;97556.63;;;8.08;100.00
9899;BME280;4988;49.238;6.698;2023-04-01T05:22:58;97552.06;;;8.10;100.00
9899;BME280;4988;49.238;6.698;2023-04-01T05:25:23;97562.59;;;8.12;100.00
9899;BME280;4988;49.238;6.698;2023-04-01T05:27:48;97557.28;;;8.12;100.00
9899;BME280;4988;49.238;6.698;2023-04-01T05:30:14;97561.72;;;8.11;100.00
9899;BME280;4988;49.238;6.698;2023-04-01T05:32:39;97563.53;;;8.11;100.00
9899;BME280;4988;49.238;6.698;2023-04-01T05:35:05;97565.53;;;8.07;100.00
9899;BME280;4988;49.238;6.698;2023-04-01T05:37:33;97563.44;;;8.12;100.00
9899;BME280;4988;49.238;6.698;2023-04-01T05:39:59;97566.09;;;8.12;100.00
9899;BME280;4988;49.238;6.698;2023-04-01T05:42:25;97568.06;;;8.09;100.00
9899;BME280;4988;49.238;6.698;2023-04-01T05:44:50;97563.72;;;8.08;100.00
9899;BME280;4988;49.238;6.698;2023-04-01T05:47:15;97563.53;;;8.11;100.00
9899;BME280;4988;49.238;6.698;2023-04-01T05:49:41;97567.97;;;8.10;100.00
9899;BME280;4988;49.238;6.698;2023-04-01T05:52:06;97572.53;;;8.08;100.00
9899;BME280;4988;49.238;6.698;2023-04-01T05:54:31;97566.63;;;8.03;100.00
9899;BME280;4988;49.238;6.698;2023-04-01T05:56:57;97568.06;;;8.09;100.00
9899;BME280;4988;49.238;6.698;2023-04-01T05:59:22;97565.59;;;8.05;100.00
9899;BME280;4988;49.238;6.698;2023-04-01T06:01:47;97565.97;;;8.14;100.00
9899;BME280;4988;49.238;6.698;2023-04-01T06:04:17;97563.31;;;8.14;100.00
9899;BME280;4988;49.238;6.698;2023-04-01T06:06:43;97556.53;;;8.24;100.00
9899;BME280;4988;49.238;6.698;2023-04-01T06:09:18;97546.31;;;8.18;100.00
9899;BME280;4988;49.238;6.698;2023-04-01T06:12:14;97558.03;;;8.14;100.00
9899;BME280;4988;49.238;6.698;2023-04-01T06:34:25;97574.88;;;8.27;100.00
9899;BME280;4988;49.238;6.698;2023-04-01T06:40:33;97577.44;;;8.29;100.00
9899;BME280;4988;49.238;6.698;2023-04-01T06:43:27;97576.19;;;8.34;100.00
9899;BME280;4988;49.238;6.698;2023-04-01T06:50:11;97583.22;;;8.35;100.00
9899;BME280;4988;49.238;6.698;2023-04-01T06:52:52;97580.19;;;8.42;100.00
9899;BME280;4988;49.238;6.698;2023-04-01T06:55:53;97588.13;;;8.42;100.00
9899;BME280;4988;49.238;6.698;2023-04-01T06:58:41;97588.13;;;8.42;100.00
9899;BME280;4988;49.238;6.698;2023-04-01T07:01:10;97586.22;;;8.44;100.00
9899;BME280;4988;49.238;6.698;2023-04-01T07:03:44;97597.44;;;8.49;100.00
9899;BME280;4988;49.238;6.698;2023-04-01T07:06:23;97590.03;;;8.54;100.00
9899;BME280;4988;49.238;6.698;2023-04-01T07:08:51;97591.66;;;8.57;100.00
9899;BME280;4988;49.238;6.698;2023-04-01T07:11:25;97595.13;;;8.57;100.00
9899;BME280;4988;49.238;6.698;2023-04-01T07:13:58;97581.50;;;8.63;100.00
9899;BME280;4988;49.238;6.698;2023-04-01T07:16:32;97597.22;;;8.66;100.00
9899;BME280;4988;49.238;6.698;2023-04-01T07:22:03;97612.19;;;8.67;100.00
9899;BME280;4988;49.238;6.698;2023-04-01T07:24:44;97599.88;;;8.66;100.00
9899;BME280;4988;49.238;6.698;2023-04-01T07:27:12;97606.13;;;8.65;100.00
9899;BME280;4988;49.238;6.698;2023-04-01T07:29:38;97607.84;;;8.66;100.00
9899;BME280;4988;49.238;6.698;2023-04-01T07:43:30;97626.13;;;8.71;100.00
9899;BME280;4988;49.238;6.698;2023-04-01T07:46:09;97633.69;;;8.77;100.00
9899;BME280;4988;49.238;6.698;2023-04-01T07:49:10;97635.88;;;8.71;100.00
9899;BME280;4988;49.238;6.698;2023-04-01T07:52:05;97636.63;;;8.73;100.00
9899;BME280;4988;49.238;6.698;2023-04-01T08:05:29;97643.38;;;8.78;100.00
9899;BME280;4988;49.238;6.698;2023-04-01T08:08:06;97646.19;;;8.75;100.00
9899;BME280;4988;49.238;6.698;2023-04-01T08:10:48;97642.50;;;8.78;100.00
9899;BME280;4988;49.238;6.698;2023-04-01T08:13:36;97647.78;;;8.78;100.00
9899;BME280;4988;49.238;6.698;2023-04-01T08:16:20;97648.56;;;8.80;100.00
9899;BME280;4988;49.238;6.698;2023-04-01T08:21:37;97660.56;;;8.85;100.00
9899;BME280;4988;49.238;6.698;2023-04-01T08:26:54;97665.97;;;8.98;100.00
9899;BME280;4988;49.238;6.698;2023-04-01T08:32:18;97675.09;;;8.94;100.00
9899;BME280;4988;49.238;6.698;2023-04-01T08:35:02;97665.31;;;8.95;100.00
9899;BME280;4988;49.238;6.698;2023-04-01T08:37:36;97673.94;;;8.98;100.00
9899;BME280;4988;49.238;6.698;2023-04-01T09:10:52;97684.53;;;9.13;100.00
9899;BME280;4988;49.238;6.698;2023-04-01T09:16:35;97682.22;;;9.21;100.00
9899;BME280;4988;49.238;6.698;2023-04-01T09:27:13;97688.69;;;9.44;100.00
9899;BME280;4988;49.238;6.698;2023-04-01T09:32:42;97700.44;;;9.55;100.00
9899;BME280;4988;49.238;6.698;2023-04-01T09:35:30;97705.00;;;9.53;100.00
9899;BME280;4988;49.238;6.698;2023-04-01T09:51:22;97717.00;;;9.58;100.00
9899;BME280;4988;49.238;6.698;2023-04-01T10:21:57;97740.38;;;9.53;100.00
9899;BME280;4988;49.238;6.698;2023-04-01T10:24:39;97737.72;;;9.53;100.00
9899;BME280;4988;49.238;6.698;2023-04-01T10:27:48;97739.44;;;9.54;100.00
9899;BME280;4988;49.238;6.698;2023-04-01T10:39:17;97737.50;;;9.71;100.00
9899;BME280;4988;49.238;6.698;2023-04-01T11:02:12;97755.44;;;9.94;100.00
9899;BME280;4988;49.238;6.698;2023-04-01T11:10:47;97753.44;;;9.98;100.00
9899;BME280;4988;49.238;6.698;2023-04-01T11:13:38;97752.88;;;9.93;100.00
9899;BME280;4988;49.238;6.698;2023-04-01T11:16:34;97752.22;;;9.89;100.00
9899;BME280;4988;49.238;6.698;2023-04-01T11:43:57;97755.78;;;10.03;100.00
9899;BME280;4988;49.238;6.698;2023-04-01T11:46:33;97769.63;;;10.08;100.00
9899;BME280;4988;49.238;6.698;2023-04-01T12:16:03;97815.16;;;9.89;100.00
9899;BME280;4988;49.238;6.698;2023-04-01T12:18:37;97811.44;;;9.91;100.00
9899;BME280;4988;49.238;6.698;2023-04-01T12:21:26;97801.16;;;10.00;100.00
9899;BME280;4988;49.238;6.698;2023-04-01T12:35:55;97813.75;;;10.38;100.00
9899;BME280;4988;49.238;6.698;2023-04-01T12:38:36;97811.09;;;10.38;100.00
9899;BME280;4988;49.238;6.698;2023-04-01T12:46:30;97824.69;;;10.33;100.00
9899;BME280;4988;49.238;6.698;2023-04-01T12:54:17;97822.88;;;10.34;100.00
9899;BME280;4988;49.238;6.698;2023-04-01T13:08:02;97833.72;;;10.30;100.00
9899;BME280;4988;49.238;6.698;2023-04-01T13:16:20;97850.53;;;10.31;100.00
9899;BME280;4988;49.238;6.698;2023-04-01T13:18:59;97854.22;;;10.28;100.00
9899;BME280;4988;49.238;6.698;2023-04-01T13:21:47;97857.69;;;10.16;100.00
9899;BME280;4988;49.238;6.698;2023-04-01T13:27:12;97853.59;;;10.25;100.00
9899;BME280;4988;49.238;6.698;2023-04-01T13:51:14;97873.19;;;9.68;100.00
9899;BME280;4988;49.238;6.698;2023-04-01T13:54:02;97868.25;;;9.61;100.00
9899;BME280;4988;49.238;6.698;2023-04-01T14:05:32;97865.66;;;9.74;100.00
9899;BME280;4988;49.238;6.698;2023-04-01T14:16:10;97877.22;;;10.02;100.00
9899;BME280;4988;49.238;6.698;2023-04-01T14:19:03;97889.44;;;10.05;100.00
9899;BME280;4988;49.238;6.698;2023-04-01T14:21:38;97897.13;;;10.09;100.00
9899;BME280;4988;49.238;6.698;2023-04-01T14:27:12;97896.88;;;9.85;100.00
9899;BME280;4988;49.238;6.698;2023-04-01T14:30:14;97903.75;;;9.75;100.00
9899;BME280;4988;49.238;6.698;2023-04-01T14:33:25;97907.19;;;9.77;100.00
9899;BME280;4988;49.238;6.698;2023-04-01T14:39:08;97905.75;;;9.57;100.00
9899;BME280;4988;49.238;6.698;2023-04-01T14:41:51;97904.41;;;9.49;100.00
9899;BME280;4988;49.238;6.698;2023-04-01T14:47:04;97905.06;;;9.53;100.00
9899;BME280;4988;49.238;6.698;2023-04-01T14:49:42;97910.59;;;9.50;100.00
9899;BME280;4988;49.238;6.698;2023-04-01T14:52:42;97907.00;;;9.51;100.00
9899;BME280;4988;49.238;6.698;2023-04-01T14:55:32;97911.34;;;9.52;100.00
9899;BME280;4988;49.238;6.698;2023-04-01T14:58:12;97907.84;;;9.52;100.00
9899;BME280;4988;49.238;6.698;2023-04-01T15:00:50;97911.16;;;9.55;100.00
9899;BME280;4988;49.238;6.698;2023-04-01T15:03:29;97915.81;;;9.52;100.00
9899;BME280;4988;49.238;6.698;2023-04-01T15:12:11;97925.16;;;9.28;100.00
9899;BME280;4988;49.238;6.698;2023-04-01T15:17:27;97917.19;;;9.14;100.00
9899;BME280;4988;49.238;6.698;2023-04-01T15:22:48;97943.34;;;9.06;100.00
9899;BME280;4988;49.238;6.698;2023-04-01T15:31:24;97940.03;;;9.02;100.00
9899;BME280;4988;49.238;6.698;2023-04-01T15:39:19;97950.94;;;9.12;100.00
9899;BME280;4988;49.238;6.698;2023-04-01T15:42:04;97954.91;;;9.05;100.00
9899;BME280;4988;49.238;6.698;2023-04-01T15:53:25;97955.75;;;9.05;100.00
9899;BME280;4988;49.238;6.698;2023-04-01T15:56:36;97956.25;;;9.12;100.00
9899;BME280;4988;49.238;6.698;2023-04-01T16:01:58;97956.53;;;9.07;100.00
9899;BME280;4988;49.238;6.698;2023-04-01T16:07:21;97967.81;;;9.11;100.00
9899;BME280;4988;49.238;6.698;2023-04-01T16:20:43;97956.34;;;9.10;100.00
9899;BME280;4988;49.238;6.698;2023-04-01T16:23:39;97965.63;;;9.03;100.00
9899;BME280;4988;49.238;6.698;2023-04-01T16:26:11;97964.66;;;9.04;100.00
9899;BME280;4988;49.238;6.698;2023-04-01T16:28:53;97967.50;;;9.01;100.00
9899;BME280;4988;49.238;6.698;2023-04-01T16:31:29;97966.47;;;9.04;100.00
9899;BME280;4988;49.238;6.698;2023-04-01T16:34:29;97957.81;;;9.00;100.00
9899;BME280;4988;49.238;6.698;2023-04-01T16:37:17;97964.28;;;8.96;100.00
9899;BME280;4988;49.238;6.698;2023-04-01T16:42:50;97961.16;;;9.04;100.00
9899;BME280;4988;49.238;6.698;2023-04-01T16:45:43;97966.47;;;9.04;100.00
9899;BME280;4988;49.238;6.698;2023-04-01T16:48:27;97967.41;;;9.02;100.00
9899;BME280;4988;49.238;6.698;2023-04-01T16:51:11;97972.34;;;8.94;100.00
9899;BME280;4988;49.238;6.698;2023-04-01T16:53:43;97970.78;;;8.90;100.00
9899;BME280;4988;49.238;6.698;2023-04-01T16:56:15;97981.22;;;8.93;100.00
9899;BME280;4988;49.238;6.698;2023-04-01T17:01:27;97983.09;;;8.91;100.00
9899;BME280;4988;49.238;6.698;2023-04-01T17:04:06;97990.22;;;8.91;100.00
9899;BME280;4988;49.238;6.698;2023-04-01T17:06:49;97994.09;;;8.85;100.00
9899;BME280;4988;49.238;6.698;2023-04-01T17:12:18;97995.44;;;8.92;100.00
9899;BME280;4988;49.238;6.698;2023-04-01T17:15:20;98000.06;;;8.89;100.00
9899;BME280;4988;49.238;6.698;2023-04-01T17:17:59;98001.69;;;8.91;100.00
9899;BME280;4988;49.238;6.698;2023-04-01T17:23:36;98000.50;;;8.97;100.00
9899;BME280;4988;49.238;6.698;2023-04-01T17:34:30;98003.56;;;8.89;100.00
9899;BME280;4988;49.238;6.698;2023-04-01T17:40:26;98010.25;;;8.80;100.00
9899;BME280;4988;49.238;6.698;2023-04-01T17:45:48;98019.84;;;8.83;100.00
9899;BME280;4988;49.238;6.698;2023-04-01T17:54:05;98031.75;;;8.76;100.00
9899;BME280;4988;49.238;6.698;2023-04-01T17:56:55;98027.41;;;8.75;100.00
9899;BME280;4988;49.238;6.698;2023-04-01T17:59:39;98031.00;;;8.74;100.00
9899;BME280;4988;49.238;6.698;2023-04-01T18:23:28;98052.63;;;8.66;100.00
9899;BME280;4988;49.238;6.698;2023-04-01T18:26:14;98054.63;;;8.62;100.00
9899;BME280;4988;49.238;6.698;2023-04-01T18:29:12;98063.19;;;8.67;100.00
9899;BME280;4988;49.238;6.698;2023-04-01T18:31:42;98059.16;;;8.60;100.00
9899;BME280;4988;49.238;6.698;2023-04-01T18:34:29;98065.31;;;8.61;100.00
9899;BME280;4988;49.238;6.698;2023-04-01T18:37:18;98071.28;;;8.64;100.00
9899;BME280;4988;49.238;6.698;2023-04-01T18:39:52;98068.63;;;8.64;100.00
9899;BME280;4988;49.238;6.698;2023-04-01T18:42:41;98076.25;;;8.71;100.00
9899;BME280;4988;49.238;6.698;2023-04-01T18:51:10;98093.28;;;8.66;100.00
9899;BME280;4988;49.238;6.698;2023-04-01T18:53:44;98098.50;;;8.68;100.00
9899;BME280;4988;49.238;6.698;2023-04-01T18:56:32;98099.53;;;8.65;100.00
9899;BME280;4988;49.238;6.698;2023-04-01T18:59:08;98108.34;;;8.66;100.00
9899;BME280;4988;49.238;6.698;2023-04-01T19:05:12;98110.94;;;8.67;100.00
9899;BME280;4988;49.238;6.698;2023-04-01T19:07:53;98116.25;;;8.67;100.00
9899;BME280;4988;49.238;6.698;2023-04-01T19:10:40;98115.31;;;8.68;100.00
9899;BME280;4988;49.238;6.698;2023-04-01T19:16:00;98116.16;;;8.69;100.00
9899;BME280;4988;49.238;6.698;2023-04-01T19:19:09;98124.94;;;8.69;100.00
9899;BME280;4988;49.238;6.698;2023-04-01T19:21:43;98131.97;;;8.71;100.00
9899;BME280;4988;49.238;6.698;2023-04-01T19:24:15;98132.56;;;8.76;100.00
9899;BME280;4988;49.238;6.698;2023-04-01T19:27:03;98123.84;;;8.74;100.00
9899;BME280;4988;49.238;6.698;2023-04-01T19:32:39;98135.31;;;8.74;100.00
9899;BME280;4988;49.238;6.698;2023-04-01T19:40:45;98139.94;;;8.71;100.00
9899;BME280;4988;49.238;6.698;2023-04-01T19:45:51;98145.25;;;8.71;100.00
9899;BME280;4988;49.238;6.698;2023-04-01T19:51:25;98147.75;;;8.74;100.00
9899;BME280;4988;49.238;6.698;2023-04-01T19:56:58;98147.75;;;8.74;100.00
9899;BME280;4988;49.238;6.698;2023-04-01T19:59:35;98154.91;;;8.72;100.00
9899;BME280;4988;49.238;6.698;2023-04-01T20:02:19;98155.69;;;8.74;100.00
9899;BME280;4988;49.238;6.698;2023-04-01T20:04:54;98157.41;;;8.75;100.00
9899;BME280;4988;49.238;6.698;2023-04-01T20:07:43;98159.44;;;8.69;100.00
9899;BME280;4988;49.238;6.698;2023-04-01T20:10:20;98171.94;;;8.67;100.00
9899;BME280;4988;49.238;6.698;2023-04-01T20:15:43;98178.00;;;8.69;100.00
9899;BME280;4988;49.238;6.698;2023-04-01T20:20:53;98186.75;;;8.72;100.00
9899;BME280;4988;49.238;6.698;2023-04-01T20:23:45;98188.38;;;8.74;100.00
9899;BME280;4988;49.238;6.698;2023-04-01T20:26:13;98200.81;;;8.74;100.00
9899;BME280;4988;49.238;6.698;2023-04-01T20:29:11;98195.50;;;8.74;100.00
9899;BME280;4988;49.238;6.698;2023-04-01T20:32:04;98198.16;;;8.74;100.00
9899;BME280;4988;49.238;6.698;2023-04-01T20:34:41;98201.75;;;8.73;100.00
9899;BME280;4988;49.238;6.698;2023-04-01T20:39:52;98207.84;;;8.75;100.00
9899;BME280;4988;49.238;6.698;2023-04-01T20:42:34;98203.38;;;8.75;100.00
9899;BME280;4988;49.238;6.698;2023-04-01T20:45:30;98212.03;;;8.79;100.00
9899;BME280;4988;49.238;6.698;2023-04-01T20:50:31;98213.88;;;8.77;100.00
9899;BME280;4988;49.238;6.698;2023-04-01T20:53:50;98216.41;;;8.80;100.00
9899;BME280;4988;49.238;6.698;2023-04-01T20:58:54;98225.91;;;8.84;100.00
9899;BME280;4988;49.238;6.698;2023-04-01T21:09:48;98227.94;;;8.79;100.00
9899;BME280;4988;49.238;6.698;2023-04-01T21:17:41;98232.78;;;8.71;100.00
9899;BME280;4988;49.238;6.698;2023-04-01T21:20:22;98232.03;;;8.68;100.00
9899;BME280;4988;49.238;6.698;2023-04-01T21:25:43;98231.25;;;8.66;100.00
9899;BME280;4988;49.238;6.698;2023-04-01T21:28:25;98237.66;;;8.62;100.00
9899;BME280;4988;49.238;6.698;2023-04-01T21:31:06;98243.97;;;8.60;100.00
9899;BME280;4988;49.238;6.698;2023-04-01T21:33:43;98243.13;;;8.59;100.00
9899;BME280;4988;49.238;6.698;2023-04-01T21:39:02;98250.16;;;8.60;100.00
9899;BME280;4988;49.238;6.698;2023-04-01T21:44:46;98246.09;;;8.53;100.00
9899;BME280;4988;49.238;6.698;2023-04-01T21:58:51;98256.09;;;8.48;100.00
9899;BME280;4988;49.238;6.698;2023-04-01T22:01:50;98260.56;;;8.46;100.00
9899;BME280;4988;49.238;6.698;2023-04-01T22:04:49;98269.47;;;8.45;100.00
9899;BME280;4988;49.238;6.698;2023-04-01T22:07:23;98272.13;;;8.45;100.00
9899;BME280;4988;49.238;6.698;2023-04-01T22:10:05;98277.44;;;8.45;100.00
9899;BME280;4988;49.238;6.698;2023-04-01T22:12:46;98272.13;;;8.45;100.00
9899;BME280;4988;49.238;6.698;2023-04-01T22:15:45;98280.16;;;8.43;100.00
9899;BME280;4988;49.238;6.698;2023-04-01T22:18:32;98268.72;;;8.43;100.00
9899;BME280;4988;49.238;6.698;2023-04-01T22:23:59;98278.84;;;8.34;100.00
9899;BME280;4988;49.238;6.698;2023-04-01T22:26:40;98286.19;;;8.29;100.00
9899;BME280;4988;49.238;6.698;2023-04-01T22:32:22;98275.31;;;8.16;100.00
9899;BME280;4988;49.238;6.698;2023-04-01T22:40:40;98286.94;;;8.14;100.00
9899;BME280;4988;49.238;6.698;2023-04-01T22:43:41;98281.81;;;8.11;100.00
9899;BME280;4988;49.238;6.698;2023-04-01T22:49:10;98282.56;;;8.13;100.00
9899;BME280;4988;49.238;6.698;2023-04-01T22:52:25;98286.94;;;8.14;100.00
9899;BME280;4988;49.238;6.698;2023-04-01T22:54:52;98292.09;;;8.17;100.00
9899;BME280;4988;49.238;6.698;2023-04-01T22:57:46;98292.94;;;8.17;100.00
9899;BME280;4988;49.238;6.698;2023-04-01T23:00:39;98294.75;;;8.17;100.00
9899;BME280;4988;49.238;6.698;2023-04-01T23:03:18;98294.59;;;8.20;100.00